Terminal Aerodrome Forecast
Issued by NWS Chicago, IL

Home | Current Version | Previous Version | Text Only | Print | Product List | Glossary Off
Versions: 1 2 3 4 5 6 7 8 9 10 11 12 13 14 15 16 17 18 19 20 21 22 23 24 25 26 27 28 29 30 31 32 33 34 35 36 37 38 39 40

000
FTUS43 KLOT 300900 AAB
TAFRFD
TAF AMD
KRFD 300949Z 3010/3106 20010KT P6SM VCSH FEW020 BKN080
     FM301030 21012G18KT 6SM -TSRA BR SCT050CB OVC080
     FM301130 21010KT P6SM VCSH SCT040 BKN080
     FM301500 22012G20KT P6SM BKN035
      TEMPO 3015/3018 4SM -TSRA BR SCT030CB BKN035
     FM310100 26004KT P6SM SCT250=

USA.gov is the U.S. government's official web portal to all federal, state and local government web resources and services.